Terminal Aerodrome Forecast
Issued by NWS

Home | Current Version | Previous Version | Text Only | Print | Product List | Glossary On
Versions: 1 2 3 4 5 6 7 8 9 10 11 12 13 14 15 16 17 18 19 20 21 22 23 24 25 26 27 28 29 30 31 32 33
000
FTUS41 KILN 231700
TAFLUK
TAF
KLUK 231730Z 2318/2418 05004KT P6SM BKN060
     FM232100 04004KT P6SM VCTS BKN040CB
     FM240200 00000KT P6SM BKN080
     FM240600 00000KT 2SM BR BKN200
     FM240800 00000KT 1/4SM FG VV002
     FM241300 04003KT P6SM SCT040=

USA.gov is the U.S. government's official web portal to all federal, state and local government web resources and services.